Time;durP1;ratioP1;P1;durP2;ratioP2;P2;SDS_P1;SDS_P2;PMS_P1;PMS_P2;Temp;Humidity;BMP_temperature;BMP_pressure;BME280_temperature;BME280_humidity;BME280_pressure;Samples;Min_cycle;Max_cycle;Signal;HPM_P1;HPM_P2
2023/08/21 00:00:52;;;;;;;;;;;;;;;;;;4978242;28;19914;-85
2023/08/21 00:03:18;;;;;;;;;;;;;;;23.35;nan;100842.28;4990138;28;20331;-83
2023/08/21 00:05:43;;;;;;;;;;;;;;;23.32;nan;100843.56;4958739;29;19919;-84
2023/08/21 00:08:08;;;;;;;;;;;;;;;23.29;nan;100832.41;4967398;28;19914;-85
2023/08/21 00:10:37;;;;;;;;;;;;;;;23.29;nan;100830.53;4968174;28;19914;-86
2023/08/21 00:13:02;;;;;;;;;;;;;;;23.28;nan;100833.47;4975436;28;19914;-84
2023/08/21 00:15:27;;;;;;;;;;;;;;;23.24;nan;100829.56;4975537;28;19928;-85
2023/08/21 00:17:52;;;;;;;;;;;;;;;23.17;nan;100840.47;4979202;28;20335;-85
2023/08/21 00:20:18;;;;;;;;;;;;;;;23.18;nan;100844.78;4958576;28;20372;-84
2023/08/21 00:22:43;;;;;;;;;;;;;;;23.20;nan;100828.38;4958849;29;19965;-84
2023/08/21 00:25:08;;;;;;;;;;;;;;;23.20;nan;100840.00;4971313;28;19921;-84
2023/08/21 00:27:34;;;;;;;;;;;;;;;23.20;nan;100847.28;4973701;28;20313;-84
2023/08/21 00:30:00;;;;;;;;;;;;;;;23.18;nan;100841.28;4974453;28;20018;-83
2023/08/21 00:32:25;;;;;;;;;;;;;;;23.15;nan;100847.16;4971036;28;19974;-83
2023/08/21 00:34:50;;;;;;;;;;;;;;;;;;4971821;28;20364;-86
2023/08/21 00:37:15;;;;;;;;;;;;;;;23.11;nan;100838.66;4978994;28;19941;-84
2023/08/21 00:39:40;;;;;;;;;;;;;;;23.09;nan;100855.06;4977637;28;19969;-85
2023/08/21 00:42:07;;;;;;;;;;;;;;;23.04;nan;100846.03;4968868;28;19915;-84
2023/08/21 00:44:32;;;;;;;;;;;;;;;23.00;nan;100840.25;4972884;28;19925;-84
2023/08/21 00:46:57;;;;;;;;;;;;;;;22.98;nan;100838.81;4991443;28;19918;-85
2023/08/21 00:49:22;;;;;;;;;;;;;;;22.97;nan;100839.84;4977636;28;19914;-83
2023/08/21 00:51:49;;;;;;;;;;;;;;;22.94;nan;100835.72;4962059;28;19969;-86
2023/08/21 00:54:15;;;;;;;;;;;;;;;22.94;nan;100834.91;4959988;28;19925;-84
2023/08/21 00:56:40;;;;;;;;;;;;;;;22.91;nan;100838.88;4961043;28;19919;-84
2023/08/21 00:59:05;;;;;;;;;;;;;;;22.87;nan;100840.38;4976472;28;19918;-83
2023/08/21 01:01:32;;;;;;;;;;;;;;;22.82;nan;100838.34;4977627;28;20404;-84
2023/08/21 01:03:57;;;;;;;;;;;;;;;22.77;nan;100829.31;4970419;28;19921;-83
2023/08/21 01:06:22;;;;;;;;;;;;;;;22.69;nan;100839.34;4977456;28;20287;-84
2023/08/21 01:08:50;;;;;;;;;;;;;;;22.67;nan;100829.84;4976122;28;20177;-84
2023/08/21 01:11:23;;;;;;;;;;;;;;;22.68;nan;100832.28;4977773;28;19918;-83
2023/08/21 01:13:59;;;;;;;;;;;;;;;22.67;nan;100836.03;4977939;28;19969;-84
2023/08/21 01:16:24;;;;;;;;;;;;;;;22.64;nan;100836.50;4965168;28;19923;-86
2023/08/21 01:18:49;;;;;;;;;;;;;;;22.61;nan;100841.50;4956951;28;19921;-85
2023/08/21 01:21:15;;;;;;;;;;;;;;;22.59;nan;100838.19;4954650;28;19918;-84
2023/08/21 01:23:41;;;;;;;;;;;;;;;22.55;nan;100843.22;4954540;28;19937;-84
2023/08/21 01:26:07;;;;;;;;;;;;;;;22.53;nan;100845.31;4953829;28;20399;-83
2023/08/21 01:28:33;;;;;;;;;;;;;;;22.45;nan;100853.69;4954162;28;19915;-84
2023/08/21 01:31:17;;;;;;;;;;;;;;;22.35;nan;100847.97;4963769;28;20371;-85
2023/08/21 01:33:50;;;;;;;;;;;;;;;22.29;nan;100843.50;4974256;28;19933;-87
2023/08/21 01:36:15;;;;;;;;;;;;;;;22.28;nan;100848.03;4974765;28;19922;-84
2023/08/21 01:38:40;;;;;;;;;;;;;;;22.24;nan;100842.28;4974235;28;19925;-83
2023/08/21 01:41:05;;;;;;;;;;;;;;;22.22;nan;100841.66;4974517;28;20372;-84
2023/08/21 01:43:30;;;;;;;;;;;;;;;22.19;nan;100844.78;4973813;28;19914;-84
2023/08/21 01:45:56;;;;;;;;;;;;;;;22.13;nan;100844.84;4974720;28;19962;-84
2023/08/21 01:48:21;;;;;;;;;;;;;;;22.09;nan;100843.63;4972818;28;19926;-84
2023/08/21 01:50:46;;;;;;;;;;;;;;;22.05;nan;100843.25;4968791;28;19910;-85
2023/08/21 01:53:11;;;;;;;;;;;;;;;22.05;nan;100837.88;4974896;28;19921;-86
2023/08/21 01:55:36;;;;;;;;;;;;;;;22.03;nan;100845.34;4974561;28;19926;-84
2023/08/21 01:58:02;;;;;;;;;;;;;;;21.98;nan;100845.19;4973788;28;19914;-85
2023/08/21 02:00:27;;;;;;;;;;;;;;;21.89;nan;100841.09;4972885;28;19922;-85
2023/08/21 02:02:52;;;;;;;;;;;;;;;21.81;nan;100837.63;4988361;28;19918;-83
2023/08/21 02:05:17;;;;;;;;;;;;;;;21.84;nan;100837.19;4979061;28;20408;-83
2023/08/21 02:07:42;;;;;;;;;;;;;;;21.89;nan;100850.00;4981342;28;19964;-84
2023/08/21 02:10:08;;;;;;;;;;;;;;;21.90;nan;100846.25;4988827;28;19914;-83
2023/08/21 02:12:33;;;;;;;;;;;;;;;21.91;nan;100849.78;4974459;28;19914;-83
2023/08/21 02:14:58;;;;;;;;;;;;;;;21.93;nan;100856.59;4974310;28;20004;-85
2023/08/21 02:17:25;;;;;;;;;;;;;;;21.91;nan;100847.91;4977920;28;19918;-83
2023/08/21 02:19:50;;;;;;;;;;;;;;;21.87;nan;100851.25;4977530;28;19920;-83
2023/08/21 02:22:16;;;;;;;;;;;;;;;21.89;nan;100859.94;4969469;28;19917;-81
2023/08/21 02:24:41;;;;;;;;;;;;;;;21.96;nan;100855.34;4976216;28;19914;-83
2023/08/21 02:27:06;;;;;;;;;;;;;;;22.00;nan;100854.69;4975274;28;19914;-84
2023/08/21 02:29:31;;;;;;;;;;;;;;;22.02;nan;100854.44;4975955;28;19917;-84
2023/08/21 02:31:56;;;;;;;;;;;;;;;22.05;nan;100854.03;4959656;28;19973;-84
2023/08/21 02:34:22;;;;;;;;;;;;;;;22.06;nan;100855.66;4955022;28;19915;-84
2023/08/21 02:36:47;;;;;;;;;;;;;;;22.05;nan;100854.03;4968826;28;19922;-84
2023/08/21 02:39:12;;;;;;;;;;;;;;;22.00;nan;100853.84;4982076;28;20017;-84
2023/08/21 02:41:37;;;;;;;;;;;;;;;21.96;nan;100849.94;4974061;28;19914;-84
2023/08/21 02:44:02;;;;;;;;;;;;;;;21.96;nan;100856.16;4973978;28;19918;-85
2023/08/21 02:46:28;;;;;;;;;;;;;;;21.96;nan;100844.56;4974892;28;19921;-84
2023/08/21 02:48:53;;;;;;;;;;;;;;;21.96;nan;100850.75;4984454;28;19968;-84
2023/08/21 02:51:18;;;;;;;;;;;;;;;21.96;nan;100850.75;4966679;28;19929;-84
2023/08/21 02:53:43;;;;;;;;;;;;;;;21.92;nan;100849.56;4967495;28;20065;-84
2023/08/21 02:56:08;;;;;;;;;;;;;;;21.89;nan;100849.19;4972988;28;19918;-84
2023/08/21 02:58:33;;;;;;;;;;;;;;;21.84;nan;100853.34;4973696;28;20379;-84
2023/08/21 03:00:58;;;;;;;;;;;;;;;21.77;nan;100849.06;4975202;28;20001;-84
2023/08/21 03:03:24;;;;;;;;;;;;;;;21.72;nan;100854.28;4973841;28;19924;-84
2023/08/21 03:05:49;;;;;;;;;;;;;;;21.71;nan;100853.41;4974207;28;19921;-84
2023/08/21 03:08:14;;;;;;;;;;;;;;;21.70;nan;100861.72;4973103;28;19977;-84
2023/08/21 03:10:39;;;;;;;;;;;;;;;21.68;nan;100858.44;4967285;28;19914;-84
2023/08/21 03:13:04;;;;;;;;;;;;;;;21.64;nan;100858.03;4989915;28;20008;-84
2023/08/21 03:15:29;;;;;;;;;;;;;;;;;;4975102;28;20198;-84
2023/08/21 03:17:55;;;;;;;;;;;;;;;21.57;nan;100859.94;4973535;28;19937;-84
2023/08/21 03:20:20;;;;;;;;;;;;;;;21.57;nan;100862.63;4973289;28;19921;-84
2023/08/21 03:22:46;;;;;;;;;;;;;;;21.57;nan;100857.25;4974035;28;19937;-84
2023/08/21 03:25:11;;;;;;;;;;;;;;;21.56;nan;100858.28;4967383;28;19965;-84
2023/08/21 03:27:39;;;;;;;;;;;;;;;21.54;nan;100858.50;4989277;28;19914;-84
2023/08/21 03:30:07;;;;;;;;;;;;;;;21.50;nan;100864.53;4975082;28;19925;-81
2023/08/21 03:32:33;;;;;;;;;;;;;;;21.46;nan;100872.22;4963143;28;19914;-84
2023/08/21 03:34:58;;;;;;;;;;;;;;;21.40;nan;100871.22;4956453;28;20014;-84
2023/08/21 03:37:23;;;;;;;;;;;;;;;21.35;nan;100865.59;4954685;29;19918;-84
2023/08/21 03:39:48;;;;;;;;;;;;;;;21.33;nan;100856.94;4968525;28;19926;-84
2023/08/21 03:42:14;;;;;;;;;;;;;;;21.32;nan;100866.03;4967000;28;19917;-84
2023/08/21 03:44:39;;;;;;;;;;;;;;;21.29;nan;100861.09;4975210;28;19918;-84
2023/08/21 03:47:04;;;;;;;;;;;;;;;21.27;nan;100862.34;4974954;28;20302;-84
2023/08/21 03:49:29;;;;;;;;;;;;;;;21.24;nan;100863.63;4963625;28;19921;-84
2023/08/21 03:51:54;;;;;;;;;;;;;;;21.19;nan;100861.56;4972858;28;19925;-84
2023/08/21 03:54:20;;;;;;;;;;;;;;;;;;4973365;28;19914;-84
2023/08/21 03:56:45;;;;;;;;;;;;;;;21.12;nan;100859.94;4966870;28;19933;-84
2023/08/21 03:59:10;;;;;;;;;;;;;;;;;;4971356;28;19914;-84
2023/08/21 04:01:35;;;;;;;;;;;;;;;21.07;nan;100843.59;4972605;28;19921;-84
2023/08/21 04:04:00;;;;;;;;;;;;;;;21.02;nan;100868.44;4981207;28;19918;-84
2023/08/21 04:06:25;;;;;;;;;;;;;;;20.97;nan;100863.72;4989549;28;20440;-84
2023/08/21 04:08:51;;;;;;;;;;;;;;;20.95;nan;100859.56;4974738;28;19913;-84
2023/08/21 04:11:16;;;;;;;;;;;;;;;20.95;nan;100867.63;4988468;28;19925;-84
2023/08/21 04:13:42;;;;;;;;;;;;;;;20.93;nan;100877.78;4966637;28;19971;-84
2023/08/21 04:16:08;;;;;;;;;;;;;;;20.93;nan;100872.41;4970168;28;19918;-84
2023/08/21 04:18:33;;;;;;;;;;;;;;;20.95;nan;100865.78;4974185;28;20264;-84
2023/08/21 04:20:58;;;;;;;;;;;;;;;20.96;nan;100874.69;4974453;28;20013;-84
2023/08/21 04:23:23;;;;;;;;;;;;;;;20.92;nan;100871.56;4989355;28;20013;-84
2023/08/21 04:25:48;;;;;;;;;;;;;;;20.88;nan;100875.75;4972723;28;19914;-84
2023/08/21 04:28:14;;;;;;;;;;;;;;;20.86;nan;100877.00;4974368;28;20631;-84
2023/08/21 04:30:42;;;;;;;;;;;;;;;20.84;nan;100874.50;4972917;28;19914;-84
2023/08/21 04:33:07;;;;;;;;;;;;;;;20.82;nan;100881.13;4974822;28;19914;-83
2023/08/21 04:35:36;;;;;;;;;;;;;;;20.81;nan;100876.78;4976051;28;20257;-83
2023/08/21 04:38:01;;;;;;;;;;;;;;;20.87;nan;100878.63;4973072;28;19922;-83
2023/08/21 04:40:26;;;;;;;;;;;;;;;20.89;nan;100888.13;4973336;28;19921;-84
2023/08/21 04:42:51;;;;;;;;;;;;;;;20.89;nan;100876.56;4971703;28;19957;-83
2023/08/21 04:45:16;;;;;;;;;;;;;;;20.87;nan;100884.00;4973179;28;19925;-84
2023/08/21 04:47:42;;;;;;;;;;;;;;;20.88;nan;100886.50;4968592;28;19997;-83
2023/08/21 04:50:07;;;;;;;;;;;;;;;20.89;nan;100887.31;4959543;28;19921;-84
2023/08/21 04:52:32;;;;;;;;;;;;;;;20.87;nan;100884.00;4975337;28;19957;-84
2023/08/21 04:54:57;;;;;;;;;;;;;;;20.87;nan;100890.19;4974050;28;20017;-84
2023/08/21 04:57:23;;;;;;;;;;;;;;;20.91;nan;100888.75;4972860;28;19914;-83
2023/08/21 04:59:48;;;;;;;;;;;;;;;20.93;nan;100888.56;4973922;28;19914;-84
2023/08/21 05:02:13;;;;;;;;;;;;;;;20.96;nan;100888.94;4971818;28;19918;-84
2023/08/21 05:04:39;;;;;;;;;;;;;;;20.96;nan;100888.94;4967319;28;19915;-83
2023/08/21 05:07:04;;;;;;;;;;;;;;;20.97;nan;100889.75;4972100;28;20415;-83
2023/08/21 05:09:30;;;;;;;;;;;;;;;21.00;nan;100895.56;4972690;28;19914;-83
2023/08/21 05:11:55;;;;;;;;;;;;;;;21.07;nan;100892.84;4973143;28;20383;-83
2023/08/21 05:14:20;;;;;;;;;;;;;;;21.14;nan;100896.34;4966461;28;19914;-83
2023/08/21 05:16:46;;;;;;;;;;;;;;;21.21;nan;100907.03;4995392;28;19960;-83
2023/08/21 05:19:11;;;;;;;;;;;;;;;21.32;nan;100892.94;4976059;28;19914;-83
2023/08/21 05:21:36;;;;;;;;;;;;;;;;;;4975253;28;20160;-83
2023/08/21 05:24:01;;;;;;;;;;;;;;;21.65;nan;100900.06;4978592;28;19972;-84
2023/08/21 05:26:27;;;;;;;;;;;;;;;21.85;nan;100902.63;4974569;28;20316;-83
2023/08/21 05:28:52;;;;;;;;;;;;;;;21.98;nan;100901.72;4974993;28;19914;-84
2023/08/21 05:31:17;;;;;;;;;;;;;;;22.19;nan;100920.22;4967886;28;20008;-83
2023/08/21 05:33:42;;;;;;;;;;;;;;;22.42;nan;100908.03;4957824;28;19921;-83
2023/08/21 05:36:08;;;;;;;;;;;;;;;22.66;nan;100915.25;4956067;28;19922;-84
2023/08/21 05:38:33;;;;;;;;;;;;;;;22.91;nan;100922.50;4956260;29;19925;-83
2023/08/21 05:40:58;;;;;;;;;;;;;;;23.19;nan;100931.94;4971053;28;19914;-84
2023/08/21 05:43:23;;;;;;;;;;;;;;;23.35;nan;100934.03;4967387;28;19977;-84
2023/08/21 05:45:49;;;;;;;;;;;;;;;23.45;nan;100934.31;4969164;28;19914;-84
2023/08/21 05:48:14;;;;;;;;;;;;;;;23.67;nan;100926.56;4974394;28;19918;-84
2023/08/21 05:50:39;;;;;;;;;;;;;;;24.04;nan;100941.88;4967573;28;20065;-84
2023/08/21 05:53:05;;;;;;;;;;;;;;;24.26;nan;100934.84;4953995;29;20320;-84
2023/08/21 05:55:30;;;;;;;0.00;0.00;;;;;;;;;;4952405;29;19977;-83
2023/08/21 05:57:55;;;;;;;0.00;0.00;;;;;;;;;;4967543;28;20771;-84
2023/08/21 06:00:20;;;;;;;0.00;0.00;;;;;;;;;;4966899;28;20492;-84
2023/08/21 06:02:48;;;;;;;0.00;0.00;;;;;;;;;;4970324;28;20463;-83
2023/08/21 06:05:14;;;;;;;0.00;0.00;;;;;;;;;;4979448;28;20428;-84
2023/08/21 06:07:43;;;;;;;0.00;0.00;;;;;;;;;;4976376;28;20412;-83
2023/08/21 06:10:11;;;;;;;0.00;0.00;;;;;;;;;;4978628;28;20416;-84
2023/08/21 06:12:37;;;;;;;0.00;0.00;;;;;;;;;;4975415;28;20397;-83
2023/08/21 06:15:03;;;;;;;0.00;0.00;;;;;;;22.42;100.00;54024.09;4976242;28;20427;-83
2023/08/21 06:17:28;;;;;;;0.00;0.00;;;;;;;;;;4957182;28;20418;-84
2023/08/21 06:19:54;;;;;;;0.00;0.00;;;;;;;;;;4958633;28;20544;-84
2023/08/21 06:22:19;;;;;;;0.00;0.00;;;;;;;;;;4958447;28;20437;-84
2023/08/21 06:24:44;;;;;;;0.00;0.00;;;;;;;;;;4957082;28;20410;-84
2023/08/21 06:27:10;;;;;;;0.00;0.00;;;;;;;;;;4959040;28;20430;-84
2023/08/21 06:29:37;;;;;;;0.00;0.00;;;;;;;;;;4973100;28;20414;-84
2023/08/21 06:32:03;;;;;;;0.00;0.00;;;;;;;;;;4981105;28;20630;-84
2023/08/21 06:34:28;;;;;;;0.00;0.00;;;;;;;;;;4961649;28;20406;-84
2023/08/21 06:36:53;;;;;;;0.00;0.00;;;;;;;;;;4974259;28;20958;-84
2023/08/21 06:39:19;;;;;;;0.00;0.00;;;;;;;;;;4958152;28;20405;-84
2023/08/21 06:41:44;;;;;;;0.00;0.00;;;;;;;;;;4956872;28;20405;-83
2023/08/21 06:44:09;;;;;;;0.00;0.00;;;;;;;;;;4966159;28;20476;-84
2023/08/21 06:46:36;;;;;;;0.00;0.00;;;;;;;;;;4972812;28;20431;-84
2023/08/21 06:49:02;;;;;;;0.00;0.00;;;;;;;;;;4963101;28;20414;-84
2023/08/21 06:51:27;;;;;;;0.00;0.00;;;;;;;;;;4966808;28;20988;-84
2023/08/21 06:53:55;;;;;;;0.00;0.00;;;;;;;;;;4970170;28;20550;-84
2023/08/21 06:56:23;;;;;;;0.00;0.00;;;;;;;;;;4991773;28;20420;-84
2023/08/21 06:58:48;;;;;;;0.00;0.00;;;;;;;;;;4991992;28;20408;-84
2023/08/21 07:01:16;;;;;;;0.00;0.00;;;;;;;;;;4984095;28;20411;-84
2023/08/21 07:03:44;;;;;;;0.00;0.00;;;;;;;;;;4978045;28;21005;-84
2023/08/21 07:06:09;;;;;;;0.00;0.00;;;;;;;;;;4970433;28;20765;-84
2023/08/21 07:08:35;;;;;;;0.00;0.00;;;;;;;;;;4978591;28;20446;-84
2023/08/21 07:11:03;;;;;;;0.00;0.00;;;;;;;;;;4977167;28;20917;-84
2023/08/21 07:13:29;;;;;;;0.00;0.00;;;;;;;;;;4971971;28;20414;-84
2023/08/21 07:15:54;;;;;;;0.00;0.00;;;;;;;;;;4973043;28;20420;-84
2023/08/21 07:18:20;;;;;;;0.00;0.00;;;;;;;;;;4975560;28;20558;-84
2023/08/21 07:20:48;;;;;;;0.00;0.00;;;;;;;22.46;100.00;65941.84;4976883;28;20427;-84
2023/08/21 07:23:13;;;;;;;0.00;0.00;;;;;;;;;;4977970;28;20408;-82
2023/08/21 07:25:39;;;;;;;0.00;0.00;;;;;;;;;;4991571;28;20475;-84
2023/08/21 07:28:04;;;;;;;0.00;0.00;;;;;;;;;;4974469;28;20412;-85
2023/08/21 07:30:32;;;;;;;0.00;0.00;;;;;;;;;;4977576;28;20401;-86
2023/08/21 07:32:57;;;;;;;0.00;0.00;;;;;;;;;;4961161;28;20410;-86
2023/08/21 07:35:22;;;;;;;0.00;0.00;;;;;;;;;;4979611;28;20444;-85
2023/08/21 07:37:48;;;;;;;0.00;0.00;;;;;;;;;;4982183;28;20415;-84
2023/08/21 07:40:13;;;;;;;0.00;0.00;;;;;;;;;;4979501;28;20407;-88
2023/08/21 07:42:39;;;;;;;0.00;0.00;;;;;;;;;;4978356;28;20480;-86
2023/08/21 07:45:07;;;;;;;0.00;0.00;;;;;;;;;;4979532;28;20412;-87
2023/08/21 07:47:33;;;;;;;0.00;0.00;;;;;;;;;;4978565;28;20434;-86
2023/08/21 07:49:58;;;;;;;0.00;0.00;;;;;;;;;;4977359;28;20469;-86
2023/08/21 07:52:24;;;;;;;0.00;0.00;;;;;;;;;;4972092;28;20796;-87
2023/08/21 07:54:53;;;;;;;0.00;0.00;;;;;;;;;;4971670;28;20828;-85
2023/08/21 07:57:19;;;;;;;0.00;0.00;;;;;;;;;;4987502;28;20468;-86
2023/08/21 07:59:46;;;;;;;0.00;0.00;;;;;;;;;;4976657;28;20428;-88
2023/08/21 08:02:14;;;;;;;0.00;0.00;;;;;;;;;;4976956;28;20431;-88
2023/08/21 08:04:40;;;;;;;0.00;0.00;;;;;;;;;;4976739;28;20440;-86
2023/08/21 08:07:05;;;;;;;0.00;0.00;;;;;;;;;;4977586;28;20405;-85
2023/08/21 08:09:34;;;;;;;0.00;0.00;;;;;;;35.21;nan;101007.16;4958091;28;20461;-86
2023/08/21 08:12:02;;;;;;;;;;;;;;;35.23;nan;101001.34;4961749;28;20035;-84
2023/08/21 08:14:28;;;;;;;;;;;;;;;35.28;nan;101007.56;4958289;28;19914;-85
2023/08/21 08:16:56;;;;;;;;;;;;;;;35.36;nan;101002.47;4962885;28;19982;-89
2023/08/21 08:19:21;;;;;;;;;;;;;;;35.41;nan;100999.59;4988853;28;19914;-85
2023/08/21 08:21:46;;;;;;;;;;;;;;;35.82;nan;101001.47;4963313;28;20411;-84
2023/08/21 08:24:12;;;;;;;;;;;;;;;36.16;nan;100998.22;4957252;28;19921;-86
2023/08/21 08:26:38;;;;;;;;;;;;;;;36.15;nan;101004.84;4958265;28;19920;-85
2023/08/21 08:29:03;;;;;;;;;;;;;;;35.68;nan;101007.84;4975234;28;19990;-88
2023/08/21 08:31:29;;;;;;;;;;;;;;;35.94;nan;101012.75;4972747;28;19914;-88
2023/08/21 08:33:54;;;;;;;;;;;;;;;36.51;nan;100993.72;4978543;28;19937;-85
2023/08/21 08:36:20;;;;;;;;;;;;;;;37.27;nan;101003.81;4970040;28;19965;-85
2023/08/21 08:38:45;;;;;;;;;;;;;;;37.55;nan;101006.34;4960495;28;19966;-86
2023/08/21 08:41:24;;;;;;;;;;;;;;;37.82;nan;101002.44;4958763;28;19922;-85
2023/08/21 08:43:50;;;;;;;;;;;;;;;38.33;nan;101011.88;4958828;28;19960;-87
2023/08/21 08:46:16;;;;;;;;;;;;;;;38.50;nan;101004.69;4957090;28;20408;-85
2023/08/21 08:48:48;;;;;;;;;;;;;;;38.80;nan;101003.59;4975549;28;20048;-87
2023/08/21 08:51:14;;;;;;;;;;;;;;;39.20;nan;100999.69;4959968;28;19995;-86
2023/08/21 08:53:42;;;;;;;;;;;;;;;39.30;nan;100996.53;4957628;29;19949;-85
2023/08/21 08:56:08;;;;;;;;;;;;;;;39.01;nan;101003.69;4959338;28;19926;-85
2023/08/21 08:58:34;;;;;;;;;;;;;;;39.11;nan;100996.16;4956978;29;19914;-86
2023/08/21 09:00:59;;;;;;;;;;;;;;;39.48;nan;101003.59;4959042;29;19972;-85
2023/08/21 09:03:26;;;;;;;;;;;;;;;39.74;nan;100991.53;4960742;28;21597;-86
2023/08/21 09:05:51;;;;;;;;;;;;;;;40.30;nan;100994.78;4993168;28;19977;-87
2023/08/21 09:08:19;;;;;;;;;;;;;;;40.29;nan;100990.41;4973064;28;19993;-85
2023/08/21 09:10:47;;;;;;;;;;;;;;;40.06;nan;100987.19;4957554;28;20002;-87
2023/08/21 09:13:14;;;;;;;;;;;;;;;40.31;nan;100988.09;4960215;28;20380;-86
2023/08/21 09:15:41;;;;;;;;;;;;;;;41.01;nan;100995.59;4958122;28;20389;-86
2023/08/21 09:18:09;;;;;;;;;;;;;;;41.78;nan;100986.44;4960142;28;19920;-87
2023/08/21 09:20:36;;;;;;;;;;;;;;;42.08;nan;100994.47;4978172;28;19918;-86
2023/08/21 09:23:01;;;;;;;;;;;;;;;42.36;nan;100989.66;4978809;28;19920;-88
2023/08/21 09:25:27;;;;;;;;;;;;;;;42.73;nan;100991.41;4955852;28;19974;-85
2023/08/21 09:27:53;;;;;;;;;;;;;;;43.13;nan;100988.41;4958650;28;19914;-86
2023/08/21 09:30:19;;;;;;;;;;;;;;;42.68;nan;100984.13;4962839;28;19914;-85
2023/08/21 09:32:57;;;;;;;;;;;;;;;42.42;nan;100996.59;4976516;28;19964;-87
2023/08/21 09:35:22;;;;;;;;;;;;;;;42.47;nan;100989.16;4974298;28;20029;-86
2023/08/21 09:37:48;;;;;;;;;;;;;;;42.09;nan;100980.19;4979775;28;19981;-87
2023/08/21 09:40:15;;;;;;;;;;;;;;;42.34;nan;100980.06;4977491;28;19918;-85
2023/08/21 09:42:40;;;;;;;;;;;;;;;42.79;nan;100985.22;4975929;28;19914;-87
2023/08/21 09:45:08;;;;;;;;;;;;;;;43.01;nan;100982.97;4980572;28;20000;-86
2023/08/21 09:47:34;;;;;;;;;;;;;;;42.88;nan;100971.13;4979149;28;19918;-86
2023/08/21 09:49:59;;;;;;;;;;;;;;;42.77;nan;100976.41;4967929;28;19914;-85
2023/08/21 09:52:32;;;;;;;;;;;;;;;42.65;nan;100982.06;4971589;28;19933;-86
2023/08/21 09:54:58;;;;;;;;;;;;;;;43.05;nan;100981.03;4957082;29;19914;-85
2023/08/21 09:57:24;;;;;;;;;;;;;;;43.06;nan;100983.47;4958805;28;20317;-86
2023/08/21 09:59:55;;;;;;;;;;;;;;;42.83;nan;100976.97;4957135;29;19915;-86
2023/08/21 10:02:22;;;;;;;;;;;;;;;43.08;nan;100974.78;4970371;28;19918;-87
2023/08/21 10:04:53;;;;;;;;;;;;;;;43.52;nan;100971.75;4993213;28;20053;-85
2023/08/21 10:07:26;;;;;;;;;;;;;;;43.80;nan;100960.44;4992382;28;19914;-85
2023/08/21 10:09:55;;;;;;;;;;;;;;;42.62;nan;100968.88;4993235;28;19920;-86
2023/08/21 10:12:21;;;;;;;;;;;;;;;43.33;nan;100971.75;4977444;28;19914;-86
2023/08/21 10:14:47;;;;;;;;;;;;;;;43.68;nan;100966.97;4995122;28;19969;-87
2023/08/21 10:17:12;;;;;;;;;;;;;;;44.22;nan;100964.41;4981455;28;20561;-87
2023/08/21 10:19:38;;;;;;;;;;;;;;;44.22;nan;100954.06;4961657;28;19949;-86
2023/08/21 10:22:04;;;;;;;;;;;;;;;44.34;nan;100957.81;4955054;28;20168;-86
2023/08/21 10:24:39;;;;;;;;;;;;;;;44.79;nan;100958.97;4951318;28;19914;-85
2023/08/21 10:27:06;;;;;;;;;;;;;;;44.22;nan;100965.22;4960953;28;19929;-85
2023/08/21 10:29:32;;;;;;;;;;;;;;;43.69;nan;100953.84;4962879;28;19972;-86
2023/08/21 10:31:59;;;;;;;;;;;;;;;43.87;nan;100954.19;4973571;28;19918;-88
2023/08/21 10:34:32;;;;;;;;;;;;;;;43.89;nan;100951.84;4961618;28;19944;-85
2023/08/21 10:37:04;;;;;;;;;;;;;;;43.86;nan;100949.78;4955380;28;19923;-85
2023/08/21 10:39:31;;;;;;;;;;;;;;;43.20;nan;100944.06;4966242;29;19931;-85
2023/08/21 10:42:35;;;;;;;;;;;;;;;43.26;nan;100948.19;4965322;29;19922;-86
2023/08/21 10:45:00;;;;;;;;;;;;;;;43.59;nan;100948.84;4976391;28;19941;-85
2023/08/21 10:47:28;;;;;;;;;;;;;;;44.15;nan;100941.97;4977287;28;19914;-85
2023/08/21 10:49:58;;;;;;;;;;;;;;;44.74;nan;100943.38;4985820;28;19918;-85
2023/08/21 10:52:32;;;;;;;;;;;;;;;45.49;nan;100946.44;4980051;28;20470;-85
2023/08/21 10:54:58;;;;;;;;;;;;;;;46.01;nan;100939.09;4978146;28;19910;-86
2023/08/21 10:57:24;;;;;;;;;;;;;;;45.41;nan;100939.97;4980781;28;19928;-85
2023/08/21 10:59:54;;;;;;;;;;;;;;;45.15;nan;100930.44;4972567;28;19919;-86
2023/08/21 11:02:20;;;;;;;;;;;;;;;45.48;nan;100933.66;4970992;28;19922;-86
2023/08/21 11:04:45;;;;;;;;;;;;;;;45.34;nan;100929.53;4993652;28;19914;-86
2023/08/21 11:07:12;;;;;;;;;;;;;;;45.34;nan;100929.53;4995028;28;19914;-85
2023/08/21 11:09:40;;;;;;;;;;;;;;;45.12;nan;100933.16;4995096;28;19921;-87
2023/08/21 11:12:09;;;;;;;;;;;;;;;45.20;nan;100932.13;4976365;28;19921;-85
2023/08/21 11:14:35;;;;;;;;;;;;;;;45.30;nan;100931.44;4977483;28;19918;-86
2023/08/21 11:17:00;;;;;;;;;;;;;;;45.78;nan;100936.41;4978141;28;20272;-85
2023/08/21 11:19:25;;;;;;;;;;;;;;;45.72;nan;100935.16;4978237;28;19950;-86
2023/08/21 11:21:53;;;;;;;;;;;;;;;45.38;nan;100939.91;4976957;28;20443;-86
2023/08/21 11:24:21;;;;;;;;;;;;;;;45.85;nan;100928.09;4977435;28;19941;-85
2023/08/21 11:26:47;;;;;;;;;;;;;;;45.80;nan;100936.84;4972085;28;19913;-86
2023/08/21 11:29:12;;;;;;;;;;;;;;;46.27;nan;100937.28;4968508;28;20001;-85
2023/08/21 11:31:38;;;;;;;;;;;;;;;47.05;nan;100933.47;4977634;28;19921;-85
2023/08/21 11:34:03;;;;;;;;;;;;;;;46.94;nan;100939.03;4978221;28;19921;-86
2023/08/21 11:36:29;;;;;;;;;;;;;;;46.58;nan;100944.38;4976007;28;19925;-86
2023/08/21 11:38:59;;;;;;;;;;;;;;;45.85;nan;100938.50;4977216;28;19933;-86
2023/08/21 11:41:24;;;;;;;;;;;;;;;45.48;nan;100925.28;4981188;28;20300;-87
2023/08/21 11:43:49;;;;;;;;;;;;;;;45.09;nan;100931.16;4983392;28;19914;-86
2023/08/21 11:46:17;;;;;;;;;;;;;;;44.25;nan;100925.44;4962903;28;19914;-87
2023/08/21 11:48:44;;;;;;;;;;;;;;;44.85;nan;100922.03;4963056;28;19920;-85
2023/08/21 11:51:10;;;;;;;;;;;;;;;45.21;nan;100919.75;4959670;28;19914;-86
2023/08/21 11:53:39;;;;;;;;;;;;;;;45.51;nan;100924.53;4965734;28;19914;-86
2023/08/21 11:56:12;;;;;;;;;;;;;;;45.29;nan;100924.28;4981282;28;19922;-86
2023/08/21 11:58:41;;;;;;;;;;;;;;;45.13;nan;100907.69;4976360;28;20000;-87
2023/08/21 12:01:10;;;;;;;;;;;;;;;44.66;nan;100916.56;4976362;28;19914;-85
2023/08/21 12:03:39;;;;;;;;;;;;;;;44.26;nan;100920.66;4974590;28;19914;-85
2023/08/21 12:06:07;;;;;;;;;;;;;;;43.52;nan;100921.63;4973459;28;19918;-86
2023/08/21 12:08:32;;;;;;;;;;;;;;;42.48;nan;100924.03;4974475;28;19937;-85
2023/08/21 12:10:57;;;;;;;;;;;;;;;41.59;nan;100912.94;4989891;28;20534;-84
2023/08/21 12:13:22;;;;;;;;;;;;;;;40.46;nan;100905.44;4956849;28;19922;-84
2023/08/21 12:15:48;;;;;;;;;;;;;;;40.32;nan;100894.69;4956591;28;19952;-84
2023/08/21 12:18:13;;;;;;;;;;;;;;;40.01;nan;100903.50;4954535;28;19914;-84
2023/08/21 12:20:38;;;;;;;;;;;;;;;39.68;nan;100909.81;4955270;29;20395;-84
2023/08/21 12:23:03;;;;;;;;;;;;;;;38.92;nan;100910.88;4954915;28;20075;-84
2023/08/21 12:25:30;;;;;;;;;;;;;;;38.25;nan;100905.75;4967554;28;20416;-84
2023/08/21 12:27:55;;;;;;;;;;;;;;;37.30;nan;100901.09;4971013;28;19925;-84
2023/08/21 12:30:20;;;;;;;;;;;;;;;37.20;nan;100910.50;4972268;28;19914;-84
2023/08/21 12:32:46;;;;;;;;;;;;;;;37.25;nan;100904.03;4959648;28;19914;-84
2023/08/21 12:35:12;;;;;;;;;;;;;;;36.91;nan;100902.00;4957799;28;19914;-84
2023/08/21 12:37:37;;;;;;;;;;;;;;;36.75;nan;100894.16;4971384;28;19921;-84
2023/08/21 12:40:02;;;;;;;;;;;;;;;36.83;nan;100889.00;4963004;28;20348;-84
2023/08/21 12:42:27;;;;;;;;;;;;;;;36.53;nan;100886.78;4972954;28;19992;-84
2023/08/21 12:44:53;;;;;;;;;;;;;;;36.55;nan;100890.03;4975139;28;19920;-84
2023/08/21 12:47:18;;;;;;;;;;;;;;;36.28;nan;100873.72;4989346;28;19921;-84
2023/08/21 12:49:43;;;;;;;;;;;;;;;35.80;nan;100877.13;4961944;28;19914;-84
2023/08/21 12:52:08;;;;;;;;;;;;;;;35.63;nan;100867.63;4973046;28;20539;-84
2023/08/21 12:54:33;;;;;;;;;;;;;;;35.62;nan;100874.28;4967763;28;19918;-83
2023/08/21 12:56:59;;;;;;;;;;;;;;;35.37;nan;100872.91;4968701;28;19974;-84
2023/08/21 12:59:24;;;;;;;;;;;;;;;35.23;nan;100866.63;4988624;28;19918;-84
2023/08/21 13:01:49;;;;;;;;;;;;;;;35.22;nan;100859.50;4973764;28;19914;-83
2023/08/21 13:04:14;;;;;;;;;;;;;;;35.04;nan;100853.00;4973776;28;19922;-84
2023/08/21 13:06:39;;;;;;;;;;;;;;;35.04;nan;100855.75;4973826;28;19918;-83
2023/08/21 13:09:06;;;;;;;;;;;;;;;35.00;nan;100852.81;4964333;28;19921;-84